createdAt,value
2019-01-09T00:01:30.167Z,40.13
2019-01-09T00:04:03.861Z,40.40
2019-01-09T00:06:37.726Z,45.20
2019-01-09T00:09:11.276Z,40.37
2019-01-09T00:11:45.003Z,43.23
2019-01-09T00:14:18.704Z,44.20
2019-01-09T00:16:52.438Z,44.67
2019-01-09T00:19:26.118Z,41.53
2019-01-09T00:21:59.861Z,42.20
2019-01-09T00:24:33.493Z,43.83
2019-01-09T00:27:07.211Z,43.33
2019-01-09T00:29:40.813Z,41.87
2019-01-09T00:32:14.589Z,42.67
2019-01-09T00:34:48.440Z,42.37
2019-01-09T00:37:22.127Z,43.20
2019-01-09T00:39:55.963Z,43.60
2019-01-09T00:42:29.647Z,44.43
2019-01-09T00:45:04.153Z,44.40
2019-01-09T00:47:37.895Z,43.80
2019-01-09T00:50:12.378Z,44.60
2019-01-09T00:52:46.068Z,43.00
2019-01-09T00:55:20.097Z,45.13
2019-01-09T00:57:53.836Z,42.60
2019-01-09T01:00:28.469Z,43.07
2019-01-09T01:03:23.119Z,44.10
2019-01-09T01:06:18.984Z,42.77
2019-01-09T01:09:07.558Z,42.50
2019-01-09T01:12:05.329Z,42.70
2019-01-09T01:15:03.121Z,41.30
2019-01-09T01:17:52.015Z,41.93
2019-01-09T01:20:37.249Z,40.13
2019-01-09T01:23:33.571Z,41.40
2019-01-09T01:26:15.675Z,39.93
2019-01-09T01:32:08.059Z,39.37
2019-01-09T01:34:44.757Z,38.23
2019-01-09T01:37:36.488Z,38.33
2019-01-09T01:40:19.033Z,37.97
2019-01-09T01:43:13.893Z,38.03
2019-01-09T01:46:10.228Z,36.37
2019-01-09T01:48:47.014Z,38.60
2019-01-09T01:51:26.237Z,35.37
2019-01-09T01:54:08.964Z,36.67
2019-01-09T01:57:04.889Z,35.83
2019-01-09T02:02:47.495Z,35.33
2019-01-09T02:05:24.167Z,37.87
2019-01-09T02:08:24.857Z,37.17
2019-01-09T02:11:07.145Z,35.23
2019-01-09T02:13:58.700Z,36.00
2019-01-09T02:19:40.023Z,36.57
2019-01-09T02:22:36.159Z,37.13
2019-01-09T02:25:15.553Z,36.27
2019-01-09T02:27:52.213Z,36.40
2019-01-09T02:30:46.778Z,36.43
2019-01-09T02:33:20.372Z,36.07
2019-01-09T02:35:54.086Z,35.13
2019-01-09T02:38:27.677Z,37.93
2019-01-09T02:41:01.311Z,37.47
2019-01-09T02:43:34.900Z,36.30
2019-01-09T02:46:08.526Z,36.80
2019-01-09T02:48:42.113Z,36.33
2019-01-09T02:51:15.741Z,36.97
2019-01-09T02:53:49.326Z,36.53
2019-01-09T02:56:22.970Z,35.73
2019-01-09T02:58:56.571Z,34.83
2019-01-09T03:01:30.196Z,35.73
2019-01-09T03:04:04.101Z,35.93
2019-01-09T03:06:37.718Z,36.67
2019-01-09T03:09:11.307Z,37.43
2019-01-09T03:11:44.933Z,35.57
2019-01-09T03:14:18.526Z,35.60
2019-01-09T03:16:52.289Z,34.67
2019-01-09T03:19:25.880Z,36.33
2019-01-09T03:21:59.518Z,35.07
2019-01-09T03:24:33.217Z,35.43
2019-01-09T03:27:06.931Z,34.23
2019-01-09T03:29:40.720Z,34.87
2019-01-09T03:32:14.355Z,37.70
2019-01-09T03:34:48.069Z,33.60
2019-01-09T03:37:21.700Z,35.23
2019-01-09T03:39:55.402Z,35.13
2019-01-09T03:42:29.089Z,37.80
2019-01-09T03:45:03.045Z,35.77
2019-01-09T03:47:36.757Z,36.67
2019-01-09T03:50:10.348Z,37.47
2019-01-09T03:52:44.060Z,36.20
2019-01-09T03:55:17.641Z,35.83
2019-01-09T03:57:51.411Z,37.27
2019-01-09T04:00:25.072Z,36.67
2019-01-09T04:02:58.745Z,38.37
2019-01-09T04:05:32.341Z,37.17
2019-01-09T04:08:06.032Z,35.93
2019-01-09T04:10:39.605Z,36.83
2019-01-09T04:13:13.233Z,37.80
2019-01-09T04:15:47.156Z,36.03
2019-01-09T04:18:20.799Z,35.87
2019-01-09T04:20:54.416Z,39.07
2019-01-09T04:23:28.069Z,37.40
2019-01-09T04:26:01.756Z,35.90
2019-01-09T04:28:35.388Z,37.33
2019-01-09T04:31:08.992Z,38.27
2019-01-09T04:33:42.588Z,38.80
2019-01-09T04:36:16.167Z,37.10
2019-01-09T04:38:49.805Z,38.90
2019-01-09T04:41:23.391Z,39.03
2019-01-09T04:43:57.017Z,39.30
2019-01-09T04:46:30.626Z,39.40
2019-01-09T04:49:04.315Z,40.93
2019-01-09T04:51:38.025Z,40.47
2019-01-09T04:54:11.647Z,41.27
2019-01-09T04:56:45.244Z,39.30
2019-01-09T04:59:18.882Z,41.90
2019-01-09T05:01:52.566Z,41.83
2019-01-09T05:04:26.211Z,40.60
2019-01-09T05:07:00.595Z,41.53
2019-01-09T05:09:34.640Z,43.23
2019-01-09T05:12:08.219Z,41.20
2019-01-09T05:14:41.849Z,41.37
2019-01-09T05:17:15.439Z,44.87
2019-01-09T05:19:49.072Z,41.70
2019-01-09T05:22:22.806Z,42.10
2019-01-09T05:24:56.415Z,43.40
2019-01-09T05:27:30.063Z,42.60
2019-01-09T05:30:04.172Z,42.30
2019-01-09T05:32:37.860Z,42.67
2019-01-09T05:35:11.500Z,45.37
2019-01-09T05:37:45.091Z,42.93
2019-01-09T05:40:18.725Z,41.73
2019-01-09T05:42:52.648Z,42.83
2019-01-09T05:45:27.388Z,43.83
2019-01-09T05:48:01.002Z,43.27
2019-01-09T05:50:34.646Z,44.43
2019-01-09T05:53:08.228Z,41.57
2019-01-09T05:55:42.034Z,44.23
2019-01-09T05:58:15.610Z,43.00
2019-01-09T06:00:49.246Z,42.57
2019-01-09T06:03:22.904Z,42.87
2019-01-09T06:05:56.500Z,40.07
2019-01-09T06:08:30.126Z,44.83
2019-01-09T06:11:03.718Z,44.13
2019-01-09T06:13:37.439Z,41.40
2019-01-09T06:16:11.720Z,40.50
2019-01-09T06:18:45.512Z,40.43
2019-01-09T06:21:19.114Z,39.13
2019-01-09T06:23:53.148Z,41.63
2019-01-09T06:26:26.748Z,43.23
2019-01-09T06:29:00.391Z,42.53
2019-01-09T06:31:33.974Z,43.10
2019-01-09T06:34:07.672Z,41.00
2019-01-09T06:36:41.332Z,39.70
2019-01-09T06:39:14.974Z,41.97
2019-01-09T06:41:48.558Z,41.57
2019-01-09T06:44:22.853Z,40.13
2019-01-09T06:46:56.558Z,38.43
2019-01-09T06:49:30.184Z,40.80
2019-01-09T06:52:03.776Z,41.97
2019-01-09T06:54:37.524Z,39.97
2019-01-09T06:57:11.081Z,41.67
2019-01-09T06:59:45.134Z,38.47
2019-01-09T07:02:18.764Z,42.63
2019-01-09T07:04:52.362Z,39.73
2019-01-09T07:07:25.980Z,43.07
2019-01-09T07:10:00.877Z,40.50
2019-01-09T07:12:35.020Z,39.23
2019-01-09T07:15:11.569Z,40.63
2019-01-09T07:17:45.259Z,41.30
2019-01-09T07:20:18.832Z,40.33
2019-01-09T07:22:52.556Z,41.53
2019-01-09T07:25:26.156Z,41.90
2019-01-09T07:27:59.855Z,42.93
2019-01-09T07:30:33.514Z,42.23
2019-01-09T07:33:07.316Z,41.30
2019-01-09T07:35:40.909Z,42.17
2019-01-09T07:38:14.780Z,41.07
2019-01-09T07:40:48.298Z,42.80
2019-01-09T07:43:21.935Z,41.47
2019-01-09T07:45:55.539Z,40.73
2019-01-09T07:48:30.716Z,42.87
2019-01-09T07:51:04.408Z,41.57
2019-01-09T07:53:37.979Z,43.90
2019-01-09T07:56:11.704Z,42.83
2019-01-09T07:58:45.447Z,42.50
2019-01-09T08:01:19.055Z,42.13
2019-01-09T08:03:53.030Z,39.60
2019-01-09T08:06:26.614Z,43.33
2019-01-09T08:09:00.359Z,40.97
2019-01-09T08:11:33.930Z,39.47
2019-01-09T08:14:07.628Z,38.27
2019-01-09T08:16:41.290Z,42.07
2019-01-09T08:19:14.893Z,43.97
2019-01-09T08:21:48.596Z,44.50
2019-01-09T08:24:22.522Z,43.73
2019-01-09T08:26:56.167Z,39.20
2019-01-09T08:29:29.733Z,41.23
2019-01-09T08:32:03.719Z,44.23
2019-01-09T08:34:37.466Z,43.23
2019-01-09T08:37:11.135Z,44.37
2019-01-09T08:39:44.748Z,42.40
2019-01-09T08:42:18.486Z,44.33
2019-01-09T08:44:52.102Z,47.00
2019-01-09T08:47:25.742Z,43.07
2019-01-09T08:49:59.322Z,40.97
2019-01-09T08:52:33.032Z,47.73
2019-01-09T08:55:08.383Z,43.90
2019-01-09T08:57:42.005Z,44.13
2019-01-09T09:00:15.682Z,43.93
2019-01-09T09:02:49.366Z,45.50
2019-01-09T09:05:22.954Z,43.63
2019-01-09T09:08:01.137Z,45.20
2019-01-09T09:10:34.819Z,43.20
2019-01-09T09:13:10.836Z,44.90
2019-01-09T09:15:44.488Z,44.33
2019-01-09T09:18:18.138Z,45.67
2019-01-09T09:20:52.012Z,44.57
2019-01-09T09:23:25.613Z,45.27
2019-01-09T09:25:59.328Z,43.83
2019-01-09T09:28:33.122Z,45.30
2019-01-09T09:31:06.837Z,45.73
2019-01-09T09:33:40.550Z,47.93
2019-01-09T09:36:14.290Z,47.97
2019-01-09T09:38:48.034Z,47.50
2019-01-09T09:41:21.678Z,47.10
2019-01-09T09:43:55.335Z,48.23
2019-01-09T09:46:28.975Z,49.07
2019-01-09T09:49:02.712Z,50.07
2019-01-09T09:51:36.453Z,48.93
2019-01-09T09:54:10.280Z,48.33
2019-01-09T09:56:43.965Z,48.30
2019-01-09T09:59:17.570Z,47.57
2019-01-09T10:01:51.261Z,47.23
2019-01-09T10:04:24.856Z,47.73
2019-01-09T10:06:58.579Z,47.20
2019-01-09T10:09:32.230Z,47.10
2019-01-09T10:12:05.919Z,44.60
2019-01-09T10:14:39.590Z,46.63
2019-01-09T10:17:13.217Z,48.87
2019-01-09T10:19:46.820Z,47.80
2019-01-09T10:22:20.520Z,48.40
2019-01-09T10:24:54.109Z,44.80
2019-01-09T10:27:27.845Z,46.73
2019-01-09T10:30:01.483Z,45.70
2019-01-09T10:32:35.107Z,47.03
2019-01-09T10:35:08.908Z,44.97
2019-01-09T10:37:43.179Z,46.60
2019-01-09T10:40:19.468Z,48.37
2019-01-09T10:42:53.248Z,47.43
2019-01-09T10:45:26.833Z,48.20
2019-01-09T10:48:00.473Z,48.30
2019-01-09T10:50:34.056Z,49.13
2019-01-09T10:53:07.695Z,49.53
2019-01-09T10:55:41.344Z,50.40
2019-01-09T10:58:15.132Z,49.37
2019-01-09T11:00:48.790Z,49.30
2019-01-09T11:03:22.435Z,50.40
2019-01-09T11:05:56.019Z,48.47
2019-01-09T11:08:29.651Z,48.57
2019-01-09T11:11:03.296Z,51.63
2019-01-09T11:13:37.104Z,50.93
2019-01-09T11:16:10.723Z,52.87
2019-01-09T11:18:44.387Z,51.57
2019-01-09T11:21:17.988Z,50.10
2019-01-09T11:23:51.633Z,55.30
2019-01-09T11:26:25.227Z,53.63
2019-01-09T11:28:58.870Z,54.83
2019-01-09T11:31:32.459Z,57.37
2019-01-09T11:34:06.230Z,57.07
2019-01-09T11:36:39.841Z,57.40
2019-01-09T11:39:13.511Z,57.37
2019-01-09T11:41:47.093Z,53.97
2019-01-09T11:44:20.851Z,51.43
2019-01-09T11:46:54.437Z,52.17
2019-01-09T11:49:29.018Z,53.83
2019-01-09T11:52:02.611Z,53.10
2019-01-09T11:54:36.343Z,53.13
2019-01-09T11:57:09.995Z,52.93
2019-01-09T11:59:43.633Z,50.97
2019-01-09T12:02:21.958Z,53.73
2019-01-09T12:04:52.483Z,55.30
2019-01-09T12:07:26.103Z,53.83
2019-01-09T12:09:59.739Z,52.40
2019-01-09T12:12:33.319Z,53.83
2019-01-09T12:15:09.703Z,52.33
2019-01-09T12:17:43.303Z,50.97
2019-01-09T12:20:18.971Z,51.87
2019-01-09T12:22:52.615Z,51.60
2019-01-09T12:25:26.245Z,54.27
2019-01-09T12:27:59.946Z,51.03
2019-01-09T12:30:33.691Z,52.13
2019-01-09T12:33:07.321Z,50.50
2019-01-09T12:35:41.031Z,52.57
2019-01-09T12:38:14.687Z,54.70
2019-01-09T12:40:48.339Z,48.90
2019-01-09T12:43:22.015Z,52.10
2019-01-09T12:45:55.659Z,50.30
2019-01-09T12:48:29.257Z,50.87
2019-01-09T12:51:02.939Z,48.97
2019-01-09T12:53:36.643Z,49.13
2019-01-09T12:56:10.263Z,49.67
2019-01-09T12:58:43.937Z,48.90
2019-01-09T13:01:17.565Z,47.47
2019-01-09T13:03:51.250Z,48.17
2019-01-09T13:06:24.943Z,48.80
2019-01-09T13:08:58.527Z,49.37
2019-01-09T13:11:32.240Z,47.13
2019-01-09T13:14:05.985Z,45.30
2019-01-09T13:16:47.504Z,45.67
2019-01-09T13:19:14.855Z,46.30
2019-01-09T13:21:48.640Z,44.77
2019-01-09T13:24:22.212Z,45.50
2019-01-09T13:26:55.849Z,44.40
2019-01-09T13:29:29.547Z,45.17
2019-01-09T13:32:03.323Z,44.80
2019-01-09T13:34:36.965Z,43.13
2019-01-09T13:37:10.616Z,42.10
2019-01-09T13:39:44.248Z,44.57
2019-01-09T13:42:17.898Z,43.73
2019-01-09T13:44:51.555Z,40.73
2019-01-09T13:47:25.225Z,43.33
2019-01-09T13:49:58.861Z,42.87
2019-01-09T13:52:32.674Z,41.80
2019-01-09T13:55:08.456Z,42.20
2019-01-09T13:57:42.055Z,41.83
2019-01-09T14:00:20.775Z,40.63
2019-01-09T14:02:54.402Z,41.60
2019-01-09T14:05:28.140Z,41.57
2019-01-09T14:08:01.851Z,42.27
2019-01-09T14:10:35.559Z,42.83
2019-01-09T14:13:09.195Z,43.63
2019-01-09T14:15:43.310Z,41.87
2019-01-09T14:18:16.957Z,39.10
2019-01-09T14:20:50.661Z,39.60
2019-01-09T14:23:24.317Z,41.30
2019-01-09T14:25:57.959Z,40.23
2019-01-09T14:28:31.620Z,41.83
2019-01-09T14:31:05.468Z,40.90
2019-01-09T14:33:39.191Z,41.43
2019-01-09T14:36:12.894Z,38.67
2019-01-09T14:38:46.556Z,40.23
2019-01-09T14:41:20.157Z,39.93
2019-01-09T14:43:53.749Z,39.47
2019-01-09T14:46:27.395Z,38.63
2019-01-09T14:49:01.000Z,39.10
2019-01-09T14:51:42.912Z,39.27
2019-01-09T14:54:09.974Z,38.33
2019-01-09T14:56:43.583Z,38.67
2019-01-09T14:59:17.289Z,37.80
2019-01-09T15:01:51.192Z,40.03
2019-01-09T15:04:24.776Z,38.53
2019-01-09T15:06:58.394Z,38.80
2019-01-09T15:09:31.976Z,38.67
2019-01-09T15:12:05.950Z,37.83
2019-01-09T15:14:39.671Z,38.23
2019-01-09T15:17:13.459Z,38.83
2019-01-09T15:19:47.276Z,36.87
2019-01-09T15:22:20.919Z,36.67
2019-01-09T15:24:54.615Z,36.23
2019-01-09T15:27:28.253Z,35.80
2019-01-09T15:30:01.894Z,31.77
2019-01-09T15:32:35.498Z,31.50
2019-01-09T15:35:11.434Z,31.57
2019-01-09T15:37:45.208Z,31.40
2019-01-09T15:40:21.506Z,32.73
2019-01-09T15:42:55.271Z,29.37
2019-01-09T15:45:29.007Z,33.07
2019-01-09T15:48:02.748Z,31.13
2019-01-09T15:50:36.350Z,30.50
2019-01-09T15:53:10.054Z,31.83
2019-01-09T15:55:43.640Z,31.73
2019-01-09T15:58:17.266Z,32.70
2019-01-09T16:00:50.920Z,33.67
2019-01-09T16:03:24.704Z,34.17
2019-01-09T16:05:58.302Z,34.13
2019-01-09T16:08:31.931Z,33.80
2019-01-09T16:11:06.256Z,33.63
2019-01-09T16:13:39.970Z,34.47
2019-01-09T16:16:13.559Z,33.90
2019-01-09T16:18:48.730Z,34.03
2019-01-09T16:21:22.437Z,34.00
2019-01-09T16:23:56.159Z,30.17
2019-01-09T16:26:29.757Z,32.83
2019-01-09T16:29:03.470Z,32.27
2019-01-09T16:31:37.568Z,32.63
2019-01-09T16:34:11.237Z,33.17
2019-01-09T16:36:44.838Z,32.63
2019-01-09T16:39:18.996Z,31.47
2019-01-09T16:41:52.612Z,32.20
2019-01-09T16:44:26.371Z,29.93
2019-01-09T16:47:00.190Z,29.47
2019-01-09T16:49:33.820Z,30.50
2019-01-09T16:52:07.445Z,28.93
2019-01-09T16:54:41.073Z,27.37
2019-01-09T16:57:14.666Z,27.33
2019-01-09T16:59:48.369Z,25.97
2019-01-09T17:02:21.956Z,30.90
2019-01-09T17:04:55.721Z,28.07
2019-01-09T17:07:29.297Z,27.40
2019-01-09T17:10:03.694Z,27.93
2019-01-09T17:12:37.416Z,27.97
2019-01-09T17:15:13.864Z,27.53
2019-01-09T17:17:47.895Z,26.03
2019-01-09T17:20:32.281Z,24.67
2019-01-09T17:23:06.138Z,25.10
2019-01-09T17:25:39.771Z,26.90
2019-01-09T17:28:14.004Z,25.70
2019-01-09T17:30:47.676Z,26.10
2019-01-09T17:33:21.273Z,24.33
2019-01-09T17:35:54.908Z,26.57
2019-01-09T17:38:28.630Z,24.93
2019-01-09T17:41:04.004Z,24.13
2019-01-09T17:43:37.787Z,25.23
2019-01-09T17:46:11.529Z,26.17
2019-01-09T17:48:45.192Z,26.77
2019-01-09T17:51:18.970Z,27.63
2019-01-09T17:53:52.552Z,27.50
2019-01-09T17:56:26.292Z,28.10
2019-01-09T17:58:59.876Z,28.27
2019-01-09T18:01:33.612Z,27.63
2019-01-09T18:04:07.279Z,28.63
2019-01-09T18:06:40.921Z,30.80
2019-01-09T18:09:14.504Z,30.83
2019-01-09T18:11:48.157Z,30.20
2019-01-09T18:14:22.296Z,31.33
2019-01-09T18:16:56.017Z,29.97
2019-01-09T18:19:29.588Z,31.83
2019-01-09T18:22:03.546Z,31.30
2019-01-09T18:24:37.131Z,31.57
2019-01-09T18:27:10.820Z,30.43
2019-01-09T18:29:44.498Z,31.10
2019-01-09T18:32:24.194Z,27.50
2019-01-09T18:34:57.853Z,27.63
2019-01-09T18:37:37.401Z,29.40
2019-01-09T18:40:20.590Z,28.90
2019-01-09T18:43:02.940Z,30.07
2019-01-09T18:45:51.646Z,31.03
2019-01-09T18:49:01.604Z,28.87
2019-01-09T18:51:57.833Z,29.97
2019-01-09T18:54:31.592Z,30.17
2019-01-09T18:57:05.906Z,30.17
2019-01-09T18:59:39.727Z,30.70
2019-01-09T19:02:13.485Z,27.10
2019-01-09T19:04:47.184Z,26.03
2019-01-09T19:07:20.917Z,26.23
2019-01-09T19:09:54.684Z,28.03
2019-01-09T19:12:28.344Z,26.03
2019-01-09T19:15:02.501Z,24.87
2019-01-09T19:17:36.084Z,25.13
2019-01-09T19:20:11.221Z,24.80
2019-01-09T19:22:44.902Z,23.53
2019-01-09T19:25:18.773Z,22.63
2019-01-09T19:27:52.714Z,24.50
2019-01-09T19:30:27.901Z,23.97
2019-01-09T19:33:01.541Z,24.30
2019-01-09T19:35:35.545Z,24.03
2019-01-09T19:38:09.128Z,22.23
2019-01-09T19:40:42.835Z,24.77
2019-01-09T19:43:16.835Z,23.83
2019-01-09T19:45:50.641Z,24.97
2019-01-09T19:48:24.369Z,24.83
2019-01-09T19:50:58.071Z,24.47
2019-01-09T19:53:31.652Z,22.70
2019-01-09T19:56:06.207Z,20.57
2019-01-09T19:58:39.946Z,23.67
2019-01-09T20:01:13.669Z,21.83
2019-01-09T20:03:47.330Z,22.27
2019-01-09T20:06:21.039Z,21.90
2019-01-09T20:08:54.688Z,22.93
2019-01-09T20:11:28.558Z,23.00
2019-01-09T20:14:02.130Z,23.13
2019-01-09T20:16:35.905Z,23.03
2019-01-09T20:19:09.827Z,21.30
2019-01-09T20:21:43.615Z,20.30
2019-01-09T20:24:17.430Z,24.37
2019-01-09T20:26:52.630Z,23.50
2019-01-09T20:29:26.321Z,22.13
2019-01-09T20:32:00.097Z,24.13
2019-01-09T20:34:33.678Z,21.30
2019-01-09T20:37:07.353Z,20.70
2019-01-09T20:39:41.023Z,22.67
2019-01-09T20:42:14.675Z,20.97
2019-01-09T20:44:48.279Z,20.43
2019-01-09T20:47:22.027Z,20.93
2019-01-09T20:49:55.791Z,19.53
2019-01-09T20:52:29.660Z,18.97
2019-01-09T20:55:04.181Z,21.80
2019-01-09T20:57:37.883Z,20.20
2019-01-09T21:00:15.022Z,19.47
2019-01-09T21:02:48.915Z,20.40
2019-01-09T21:05:25.725Z,17.57
2019-01-09T21:07:59.654Z,18.00
2019-01-09T21:10:33.379Z,18.50
2019-01-09T21:13:07.423Z,17.60
2019-01-09T21:15:41.117Z,18.00
2019-01-09T21:18:14.809Z,17.80
2019-01-09T21:20:48.536Z,18.13
2019-01-09T21:23:22.166Z,17.03
2019-01-09T21:25:55.889Z,17.80
2019-01-09T21:28:29.677Z,18.83
2019-01-09T21:31:03.283Z,17.23
2019-01-09T21:33:36.988Z,18.53
2019-01-09T21:36:10.605Z,19.10
2019-01-09T21:38:44.253Z,20.30
2019-01-09T21:41:17.895Z,20.00
2019-01-09T21:43:51.522Z,18.87
2019-01-09T21:46:25.259Z,19.70
2019-01-09T21:48:59.219Z,19.63
2019-01-09T21:51:32.802Z,19.03
2019-01-09T21:54:06.710Z,20.30
2019-01-09T21:56:40.529Z,19.77
2019-01-09T21:59:14.225Z,19.17
2019-01-09T22:01:47.771Z,20.23
2019-01-09T22:04:21.386Z,21.93
2019-01-09T22:06:55.115Z,21.40
2019-01-09T22:09:28.821Z,22.07
2019-01-09T22:12:02.863Z,21.17
2019-01-09T22:14:36.565Z,22.00
2019-01-09T22:17:10.345Z,22.97
2019-01-09T22:19:44.157Z,24.77
2019-01-09T22:22:17.873Z,24.30
2019-01-09T22:24:51.462Z,25.10
2019-01-09T22:27:25.159Z,26.70
2019-01-09T22:29:58.791Z,26.03
2019-01-09T22:32:32.557Z,24.50
2019-01-09T22:35:06.824Z,26.50
2019-01-09T22:37:40.403Z,25.83
2019-01-09T22:40:21.018Z,26.77
2019-01-09T22:42:55.043Z,24.40
2019-01-09T22:45:28.824Z,24.87
2019-01-09T22:48:02.427Z,25.83
2019-01-09T22:50:36.123Z,25.13
2019-01-09T22:53:09.753Z,24.40
2019-01-09T22:55:43.428Z,26.30
2019-01-09T22:58:16.971Z,25.47
2019-01-09T23:00:56.657Z,25.40
2019-01-09T23:03:30.922Z,25.20
2019-01-09T23:06:05.365Z,24.90
2019-01-09T23:08:39.055Z,25.00
2019-01-09T23:11:12.714Z,25.47
2019-01-09T23:13:46.709Z,23.47
2019-01-09T23:16:20.523Z,25.80
2019-01-09T23:18:54.287Z,25.53
2019-01-09T23:21:27.984Z,25.70
2019-01-09T23:24:01.655Z,23.77
2019-01-09T23:26:35.407Z,24.60
2019-01-09T23:29:09.266Z,24.63
2019-01-09T23:31:42.967Z,23.97
2019-01-09T23:34:16.628Z,23.87
2019-01-09T23:36:50.245Z,23.60
2019-01-09T23:39:23.895Z,25.53
2019-01-09T23:41:57.599Z,24.10
2019-01-09T23:44:31.353Z,24.13
2019-01-09T23:47:05.117Z,25.63
2019-01-09T23:49:38.700Z,24.30
2019-01-09T23:52:12.410Z,25.43
2019-01-09T23:54:46.005Z,26.70
2019-01-09T23:57:19.765Z,25.17
2019-01-09T23:59:53.374Z,25.57
